Moyer Aviation Incorporated

Pocono Mountains Airport

188 Airport Rd. Tobyhanna, PA 18466 

P: 570-839-7161
800-321-5890
F: 570-839-7162

Weather

Weather

Pocono Weather

KMPO 271753Z AUTO 24005KT 10SM BKN015 OVC020 21/19 A3000 RMK AO2 SLP153 T02060189 10206 20167 56015

Allentown Weather

KABE 271751Z 22003KT 9SM OVC016 24/19 A2996 RMK AO2 SLP143 T02390194 10239 20206 56019

Wilkes-Barre Weather

KAVP 271754Z 26008KT 8SM SCT017 BKN035 BKN070 25/20 A2997 RMK AO2 RAB23E47 SLP139 P0000 60000 T02500200 10250 20200 56014 $


* required field

Contact Us